Time;durP1;ratioP1;P1;durP2;ratioP2;P2;SDS_P1;SDS_P2;PMS_P1;PMS_P2;Temp;Humidity;BMP_temperature;BMP_pressure;BME280_temperature;BME280_humidity;BME280_pressure;Samples;Min_cycle;Max_cycle;Signal;HPM_P1;HPM_P2
2022/04/09 00:00:43;;;;;;;15.00;1.95;;;4.50;99.90;;;;;;5087648;28;20111;-68
2022/04/09 00:03:09;;;;;;;12.90;1.98;;;4.50;99.90;;;;;;5069421;28;20044;-68
2022/04/09 00:05:35;;;;;;;11.55;2.28;;;4.60;99.90;;;;;;5068077;28;20399;-68
2022/04/09 00:08:02;;;;;;;15.50;2.17;;;4.70;99.90;;;;;;5066797;28;20044;-68
2022/04/09 00:10:28;;;;;;;7.10;1.60;;;4.70;99.90;;;;;;5069201;28;20048;-68
2022/04/09 00:12:53;;;;;;;21.73;2.50;;;4.70;99.90;;;;;;5067790;28;20090;-68
2022/04/09 00:15:26;;;;;;;13.70;1.90;;;4.60;99.90;;;;;;5068506;28;20055;-68
2022/04/09 00:17:52;;;;;;;17.50;2.08;;;4.50;99.90;;;;;;5067235;28;20518;-67
2022/04/09 00:20:19;;;;;;;9.48;1.73;;;4.30;99.90;;;;;;5069027;28;20084;-68
2022/04/09 00:22:46;;;;;;;14.15;1.58;;;4.20;99.90;;;;;;5067592;28;20051;-68
2022/04/09 00:25:14;;;;;;;8.50;1.50;;;4.10;99.90;;;;;;5066210;28;20457;-67
2022/04/09 00:27:41;;;;;;;14.80;2.20;;;4.00;99.90;;;;;;5068559;28;20059;-68
2022/04/09 00:30:09;;;;;;;10.68;2.00;;;4.00;99.90;;;;;;5067899;28;20041;-68
2022/04/09 00:32:35;;;;;;;12.43;2.00;;;4.00;99.90;;;;;;5078924;28;20041;-68
2022/04/09 00:35:02;;;;;;;16.50;2.28;;;3.90;99.90;;;;;;5067492;28;20490;-68
2022/04/09 00:37:29;;;;;;;17.35;1.92;;;4.00;99.90;;;;;;5069120;28;20067;-68
2022/04/09 00:39:55;;;;;;;17.25;2.30;;;4.00;99.90;;;;;;5068782;28;20052;-68
2022/04/09 00:42:21;;;;;;;19.75;3.03;;;4.00;99.90;;;;;;5076684;28;20374;-68
2022/04/09 00:44:47;;;;;;;17.17;2.95;;;4.10;99.90;;;;;;5087425;28;20066;-68
2022/04/09 00:47:13;;;;;;;22.33;2.63;;;4.10;99.90;;;;;;5086563;28;20040;-68
2022/04/09 00:49:40;;;;;;;18.13;1.83;;;4.00;99.90;;;;;;5087167;28;20409;-68
2022/04/09 00:52:08;;;;;;;6.35;1.27;;;3.90;99.90;;;;;;5082205;28;20121;-68
2022/04/09 00:54:38;;;;;;;9.98;1.05;;;3.90;99.90;;;;;;5070226;28;20059;-68
2022/04/09 00:57:05;;;;;;;2.53;0.63;;;4.00;99.90;;;;;;5070264;28;20512;-68
2022/04/09 00:59:34;;;;;;;9.23;1.38;;;4.00;99.90;;;;;;5069100;28;20048;-69
2022/04/09 01:02:02;;;;;;;12.77;1.65;;;4.00;99.90;;;;;;5076513;28;20417;-68
2022/04/09 01:04:28;;;;;;;10.82;2.10;;;4.00;99.90;;;;;;5086943;28;20050;-68
2022/04/09 01:06:57;;;;;;;11.13;2.38;;;4.00;99.90;;;;;;5088994;28;20046;-68
2022/04/09 01:09:22;;;;;;;14.15;2.33;;;4.00;99.90;;;;;;5068730;28;20051;-68
2022/04/09 01:11:49;;;;;;;9.45;1.80;;;4.00;99.90;;;;;;5069998;28;20047;-67
2022/04/09 01:14:16;;;;;;;14.38;2.40;;;4.10;99.90;;;;;;5069758;28;20080;-67
2022/04/09 01:16:42;;;;;;;7.85;2.13;;;4.10;99.90;;;;;;5069627;28;20125;-68
2022/04/09 01:19:07;;;;;;;13.48;2.42;;;4.10;99.90;;;;;;5070409;28;20523;-68
2022/04/09 01:21:35;;;;;;;8.13;2.15;;;4.10;99.90;;;;;;5078312;28;20040;-68
2022/04/09 01:24:01;;;;;;;7.63;2.10;;;4.10;99.90;;;;;;5089789;28;20079;-68
2022/04/09 01:26:26;;;;;;;17.33;1.83;;;4.20;99.90;;;;;;5089260;28;20526;-67
2022/04/09 01:28:53;;;;;;;17.90;2.30;;;4.10;99.90;;;;;;5089861;28;20392;-67
2022/04/09 01:31:18;;;;;;;10.23;1.67;;;4.10;99.90;;;;;;5104351;28;20047;-67
2022/04/09 01:33:44;;;;;;;10.25;1.73;;;4.20;99.90;;;;;;5089638;28;20569;-67
2022/04/09 01:36:14;;;;;;;16.55;2.20;;;4.20;99.90;;;;;;5089130;28;20043;-67
2022/04/09 01:38:40;;;;;;;13.32;2.08;;;4.20;99.90;;;;;;5107298;28;20055;-67
2022/04/09 01:41:06;;;;;;;18.90;3.38;;;4.20;99.90;;;;;;5089753;28;20035;-68
2022/04/09 01:43:32;;;;;;;18.38;2.88;;;4.30;99.90;;;;;;5051970;28;20080;-67
2022/04/09 01:45:58;;;;;;;15.90;2.45;;;4.40;99.90;;;;;;5069916;28;20064;-68
2022/04/09 01:48:24;;;;;;;15.27;2.55;;;4.40;99.90;;;;;;5072068;28;20045;-66
2022/04/09 01:50:51;;;;;;;10.93;2.20;;;4.40;99.90;;;;;;5107993;28;20052;-67
2022/04/09 01:53:17;;;;;;;9.52;1.90;;;4.40;99.90;;;;;;5107495;28;20135;-66
2022/04/09 01:55:43;;;;;;;15.40;2.55;;;4.40;99.90;;;;;;5087258;28;20104;-66
2022/04/09 01:58:10;;;;;;;13.32;1.73;;;4.40;99.90;;;;;;5073846;28;20382;-67
2022/04/09 02:00:36;;;;;;;7.85;1.70;;;4.30;99.90;;;;;;5088130;28;20445;-67
2022/04/09 02:03:02;;;;;;;14.40;2.53;;;4.30;99.90;;;;;;5086220;28;20478;-67
2022/04/09 02:05:28;;;;;;;14.65;2.58;;;4.20;99.90;;;;;;5085685;28;20135;-66
2022/04/09 02:07:53;;;;;;;12.60;2.40;;;4.20;99.90;;;;;;5069175;28;20551;-66
2022/04/09 02:10:19;;;;;;;15.00;1.95;;;4.30;99.90;;;;;;5068039;28;20143;-66
2022/04/09 02:12:47;;;;;;;11.38;2.08;;;4.30;99.90;;;;;;5086948;28;20097;-67
2022/04/09 02:15:16;;;;;;;18.13;2.67;;;4.20;99.90;;;;;;5086899;28;20047;-66
2022/04/09 02:17:43;;;;;;;10.60;1.58;;;4.20;99.90;;;;;;5085867;28;20039;-66
2022/04/09 02:20:14;;;;;;;13.60;2.47;;;4.30;99.90;;;;;;5052531;28;20101;-67
2022/04/09 02:22:42;;;;;;;12.38;2.42;;;4.30;99.90;;;;;;5067079;28;20052;-67
2022/04/09 02:25:10;;;;;;;9.85;2.55;;;4.30;99.90;;;;;;5087207;28;20079;-67
2022/04/09 02:27:37;;;;;;;15.27;2.88;;;4.30;99.90;;;;;;5067548;28;20048;-67
2022/04/09 02:30:05;;;;;;;10.02;1.92;;;4.40;99.90;;;;;;5052386;28;20048;-67
2022/04/09 02:32:31;;;;;;;11.95;2.30;;;4.50;99.90;;;;;;5100493;28;20404;-67
2022/04/09 02:34:57;;;;;;;19.98;2.42;;;4.50;99.90;;;;;;5087515;28;20043;-67
2022/04/09 02:37:23;;;;;;;12.85;2.35;;;4.50;99.90;;;;;;5106299;28;20462;-66
2022/04/09 02:39:49;;;;;;;8.43;2.03;;;4.50;99.90;;;;;;5069055;28;20059;-66
2022/04/09 02:42:14;;;;;;;14.77;2.00;;;4.50;99.90;;;;;;5036293;28;20066;-67
2022/04/09 02:44:45;;;;;;;11.27;2.10;;;4.50;99.90;;;;;;5085208;28;20507;-67
2022/04/09 02:47:10;;;;;;;;;;;4.40;99.90;;;;;;5069033;28;20113;-67
2022/04/09 02:49:36;;;;;;;14.77;2.63;;;4.40;99.90;;;;;;5086304;28;20337;-67
2022/04/09 02:52:04;;;;;;;10.35;1.90;;;4.40;99.90;;;;;;5067635;28;20055;-67
2022/04/09 02:54:30;;;;;;;12.32;1.98;;;4.40;99.90;;;;;;5069243;28;20101;-67
2022/04/09 02:56:56;;;;;;;15.07;2.08;;;4.30;99.90;;;;;;5084796;28;20040;-66
2022/04/09 02:59:21;;;;;;;15.05;2.28;;;4.30;99.90;;;;;;5087042;28;20047;-67
2022/04/09 03:01:47;;;;;;;8.63;1.50;;;4.20;99.90;;;;;;5073704;28;20054;-67
2022/04/09 03:04:14;;;;;;;14.35;2.25;;;4.20;99.90;;;;;;5072499;28;20093;-67
2022/04/09 03:06:41;;;;;;;13.05;1.90;;;4.20;99.90;;;;;;5068244;28;20496;-67
2022/04/09 03:09:07;;;;;;;12.20;2.30;;;4.20;99.90;;;;;;5078420;28;20412;-67
2022/04/09 03:11:34;;;;;;;3.38;0.90;;;4.10;99.90;;;;;;5068667;28;20032;-67
2022/04/09 03:13:59;;;;;;;12.75;1.80;;;4.10;99.90;;;;;;5067112;28;20456;-67
2022/04/09 03:16:26;;;;;;;15.88;2.20;;;4.00;99.90;;;;;;5068991;28;20044;-67
2022/04/09 03:18:51;;;;;;;13.73;2.20;;;4.00;99.90;;;;;;5081692;28;20043;-67
2022/04/09 03:21:17;;;;;;;14.50;2.13;;;3.90;99.90;;;;;;5072295;28;20040;-67
2022/04/09 03:23:44;;;;;;;12.90;2.13;;;3.90;99.90;;;;;;5105280;28;20051;-67
2022/04/09 03:26:11;;;;;;;12.52;1.95;;;3.80;99.90;;;;;;5088923;28;20100;-67
2022/04/09 03:28:37;;;;;;;10.13;1.17;;;3.80;99.90;;;;;;5104974;28;20381;-67
2022/04/09 03:31:04;;;;;;;11.77;2.25;;;3.90;99.90;;;;;;5087407;28;20052;-68
2022/04/09 03:33:31;;;;;;;11.73;2.28;;;3.90;99.90;;;;;;5106906;28;20386;-67
2022/04/09 03:35:57;;;;;;;4.07;0.88;;;3.90;99.90;;;;;;5105182;28;20100;-67
2022/04/09 03:38:23;;;;;;;10.50;2.17;;;4.10;99.90;;;;;;5085005;28;20370;-67
2022/04/09 03:40:48;;;;;;;11.05;2.47;;;4.10;99.90;;;;;;5066387;28;20573;-67
2022/04/09 03:43:14;;;;;;;23.10;2.53;;;4.10;99.90;;;;;;5086828;28;20126;-66
2022/04/09 03:45:40;;;;;;;12.93;2.40;;;4.00;99.90;;;;;;5067349;28;20410;-67
2022/04/09 03:48:06;;;;;;;16.80;3.17;;;4.00;99.90;;;;;;5067857;28;20136;-67
2022/04/09 03:50:32;;;;;;;15.85;2.03;;;4.10;99.90;;;;;;5069224;28;20389;-67
2022/04/09 03:52:58;;;;;;;8.77;1.35;;;4.10;99.90;;;;;;5066347;28;20080;-67
2022/04/09 03:55:25;;;;;;;14.77;2.03;;;4.10;99.90;;;;;;5086989;28;20451;-67
2022/04/09 03:57:50;;;;;;;5.72;0.82;;;4.10;99.90;;;;;;5049260;28;20059;-66
2022/04/09 04:00:17;;;;;;;12.07;1.10;;;4.10;99.90;;;;;;5072217;28;20040;-66
2022/04/09 04:02:45;;;;;;;11.38;2.13;;;4.10;99.90;;;;;;5085395;28;20410;-67
2022/04/09 04:05:11;;;;;;;11.90;2.08;;;4.10;99.90;;;;;;5092375;28;20051;-67
2022/04/09 04:07:42;;;;;;;3.20;0.98;;;4.10;99.90;;;;;;5109978;28;20028;-66
2022/04/09 04:10:10;;;;;;;6.22;0.98;;;4.00;99.90;;;;;;5069317;28;20123;-66
2022/04/09 04:12:36;;;;;;;7.70;1.35;;;3.90;99.90;;;;;;5071508;28;20504;-66
2022/04/09 04:15:04;;;;;;;2.80;0.65;;;3.80;99.90;;;;;;5088379;28;20044;-66
2022/04/09 04:17:43;;;;;;;6.32;1.05;;;3.80;99.90;;;;;;5071691;28;20063;-67
2022/04/09 04:20:11;;;;;;;10.30;1.60;;;3.70;99.90;;;;;;5088889;28;20502;-67
2022/04/09 04:22:37;;;;;;;11.75;1.30;;;3.70;99.90;;;;;;5089612;28;20077;-66
2022/04/09 04:25:04;;;;;;;6.65;1.60;;;3.70;99.90;;;;;;5071105;28;20389;-67
2022/04/09 04:27:31;;;;;;;15.57;2.58;;;3.70;99.90;;;;;;5069897;28;20051;-67
2022/04/09 04:30:01;;;;;;;12.57;1.75;;;3.80;99.90;;;;;;5071102;28;20058;-66
2022/04/09 04:32:27;;;;;;;10.95;2.30;;;3.80;99.90;;;;;;5080522;28;20342;-67
2022/04/09 04:34:53;;;;;;;3.63;0.55;;;3.90;99.90;;;;;;5054397;28;20036;-67
2022/04/09 04:37:19;;;;;;;14.18;1.80;;;3.90;99.90;;;;;;5069791;28;20048;-66
2022/04/09 04:39:45;;;;;;;10.68;1.13;;;3.90;99.90;;;;;;5071015;28;20429;-67
2022/04/09 04:42:11;;;;;;;6.45;0.85;;;3.80;99.90;;;;;;5071030;28;20120;-66
2022/04/09 04:44:36;;;;;;;11.88;2.35;;;3.80;99.90;;;;;;5088530;28;20040;-66
2022/04/09 04:47:02;;;;;;;10.63;0.98;;;3.70;99.90;;;;;;5070646;28;20047;-66
2022/04/09 04:49:28;;;;;;;16.65;1.30;;;3.70;99.90;;;;;;5069724;28;20050;-67
2022/04/09 04:51:54;;;;;;;3.10;0.30;;;3.70;99.90;;;;;;5071501;28;20048;-67
2022/04/09 04:54:19;;;;;;;6.60;1.35;;;3.70;99.90;;;;;;5070589;28;20135;-67
2022/04/09 04:56:45;;;;;;;7.18;1.05;;;3.70;99.90;;;;;;5089213;28;20035;-67
2022/04/09 04:59:11;;;;;;;9.73;1.38;;;3.80;99.90;;;;;;5069422;28;20078;-67
2022/04/09 05:01:40;;;;;;;10.98;1.63;;;3.80;99.90;;;;;;5075756;28;20473;-67
2022/04/09 05:04:07;;;;;;;12.93;2.28;;;3.80;99.90;;;;;;5075021;28;20056;-67
2022/04/09 05:06:33;;;;;;;9.75;1.88;;;3.80;99.90;;;;;;5088010;28;20109;-66
2022/04/09 05:08:59;;;;;;;9.23;1.13;;;3.80;99.90;;;;;;5088847;28;20084;-66
2022/04/09 05:11:25;;;;;;;10.93;1.92;;;3.80;99.90;;;;;;5069415;28;20040;-67
2022/04/09 05:13:50;;;;;;;16.38;2.40;;;3.80;99.90;;;;;;5071412;28;20047;-67
2022/04/09 05:16:16;;;;;;;6.60;1.42;;;3.80;99.90;;;;;;5052489;28;20040;-67
2022/04/09 05:18:42;;;;;;;15.95;2.25;;;3.80;99.90;;;;;;5070724;28;20087;-67
2022/04/09 05:21:08;;;;;;;9.60;1.60;;;3.80;99.90;;;;;;5069764;28;20100;-67
2022/04/09 05:23:33;;;;;;;10.05;1.70;;;3.90;99.90;;;;;;5054329;28;20417;-67
2022/04/09 05:25:59;;;;;;;11.70;3.13;;;3.90;99.90;;;;;;5070330;28;20048;-67
2022/04/09 05:28:25;;;;;;;17.23;2.45;;;4.00;99.90;;;;;;5052254;28;20043;-66
2022/04/09 05:30:51;;;;;;;9.90;1.63;;;4.10;99.90;;;;;;5070189;28;20051;-66
2022/04/09 05:33:18;;;;;;;10.57;2.08;;;4.10;99.90;;;;;;5067412;28;20440;-66
2022/04/09 05:35:44;;;;;;;9.65;2.10;;;4.00;99.90;;;;;;5070146;28;20109;-67
2022/04/09 05:38:10;;;;;;;14.27;1.75;;;4.00;99.90;;;;;;5068499;28;20341;-67
2022/04/09 05:40:36;;;;;;;10.70;2.05;;;3.90;99.90;;;;;;5069878;28;20094;-67
2022/04/09 05:43:03;;;;;;;11.10;1.73;;;3.80;99.90;;;;;;5069548;28;20040;-68
2022/04/09 05:45:29;;;;;;;10.55;1.60;;;3.80;99.90;;;;;;5097001;28;20144;-67
2022/04/09 05:47:55;;;;;;;10.38;1.70;;;3.90;99.90;;;;;;5108096;28;20122;-67
2022/04/09 05:50:21;;;;;;;12.85;2.00;;;4.00;99.90;;;;;;5068115;28;20070;-66
2022/04/09 05:52:49;;;;;;;10.23;2.00;;;4.30;99.90;;;;;;5087707;28;20056;-67
2022/04/09 05:55:17;;;;;;;7.97;1.70;;;4.40;99.90;;;;;;5083874;28;20071;-67
2022/04/09 05:57:43;;;;;;;17.15;3.00;;;4.60;99.90;;;;;;5069694;28;20658;-67
2022/04/09 06:00:10;;;;;;;11.75;1.50;;;4.90;99.90;;;;;;5086835;28;20040;-66
2022/04/09 06:02:39;;;;;;;6.82;1.10;;;5.00;99.90;;;;;;5100642;28;20032;-67
2022/04/09 06:05:05;;;;;;;4.15;0.68;;;4.90;99.90;;;;;;5107219;28;20047;-66
2022/04/09 06:07:31;;;;;;;8.82;1.58;;;4.90;99.90;;;;;;5105551;28;20096;-66
2022/04/09 06:09:58;;;;;;;2.40;0.80;;;4.90;99.90;;;;;;5072599;28;20437;-66
2022/04/09 06:12:23;;;;;;;1.88;0.65;;;4.80;99.90;;;;;;5088165;28;20469;-66
2022/04/09 06:14:49;;;;;;;11.93;1.40;;;4.80;99.90;;;;;;5072760;28;20134;-67
2022/04/09 06:17:15;;;;;;;8.68;1.42;;;4.80;99.90;;;;;;5084218;28;20044;-67
2022/04/09 06:19:41;;;;;;;6.15;1.52;;;4.70;99.90;;;;;;5069058;28;20508;-68
2022/04/09 06:22:06;;;;;;;14.80;3.30;;;4.70;99.90;;;;;;5069664;28;20546;-66
2022/04/09 06:24:32;;;;;;;8.32;1.77;;;4.60;99.90;;;;;;5051226;28;20308;-68
2022/04/09 06:27:01;;;;;;;6.55;1.40;;;4.50;99.90;;;;;;5088081;28;20485;-67
2022/04/09 06:29:26;;;;;;;6.03;1.42;;;4.40;99.90;;;;;;5085771;28;20654;-67
2022/04/09 06:31:52;;;;;;;9.98;2.17;;;4.40;99.90;;;;;;5076775;28;20480;-68
2022/04/09 06:34:18;;;;;;;11.98;2.40;;;4.40;99.90;;;;;;5087340;28;20052;-68
2022/04/09 06:36:44;;;;;;;12.57;1.95;;;4.40;99.90;;;;;;5083672;28;20101;-68
2022/04/09 06:39:10;;;;;;;14.05;2.30;;;4.40;99.90;;;;;;5088158;28;20043;-67
2022/04/09 06:41:36;;;;;;;7.47;2.13;;;4.60;99.90;;;;;;5067871;28;20549;-68
2022/04/09 06:44:03;;;;;;;12.02;1.70;;;5.10;99.90;;;;;;5095779;28;20101;-68
2022/04/09 06:46:29;;;;;;;6.60;1.30;;;5.60;99.90;;;;;;5071381;28;20427;-68
2022/04/09 06:48:55;;;;;;;12.65;1.80;;;5.90;99.90;;;;;;5089009;28;20135;-69
2022/04/09 06:51:22;;;;;;;2.22;1.15;;;6.00;99.90;;;;;;5086794;28;20067;-69
2022/04/09 06:53:48;;;;;;;4.25;0.75;;;6.00;99.90;;;;;;5060153;28;20048;-69
2022/04/09 06:56:14;;;;;;;10.70;1.23;;;6.10;99.90;;;;;;5081243;28;20058;-68
2022/04/09 06:58:40;;;;;;;9.25;1.75;;;6.20;99.90;;;;;;5068108;28;20059;-69
2022/04/09 07:01:06;;;;;;;16.20;2.97;;;6.20;99.90;;;;;;5071610;28;20505;-68
2022/04/09 07:03:31;;;;;;;16.40;2.90;;;6.40;99.90;;;;;;5087193;28;20047;-68
2022/04/09 07:05:58;;;;;;;11.05;2.35;;;6.50;99.90;;;;;;5068552;28;20044;-68
2022/04/09 07:08:24;;;;;;;19.17;3.25;;;6.60;99.90;;;;;;5050375;28;20501;-68
2022/04/09 07:10:50;;;;;;;12.00;2.35;;;6.80;99.90;;;;;;5072197;28;20040;-68
2022/04/09 07:13:16;;;;;;;7.72;1.55;;;6.90;99.90;;;;;;5086905;28;20055;-68
2022/04/09 07:15:42;;;;;;;16.55;3.00;;;6.80;99.90;;;;;;5068533;28;20036;-68
2022/04/09 07:18:08;;;;;;;14.98;2.97;;;6.90;99.90;;;;;;5095616;28;20122;-68
2022/04/09 07:20:36;;;;;;;11.38;2.63;;;6.90;99.90;;;;;;5082230;28;20135;-68
2022/04/09 07:23:02;;;;;;;10.55;2.20;;;7.10;99.90;;;;;;5084375;28;20048;-68
2022/04/09 07:25:32;;;;;;;16.08;2.35;;;7.20;99.90;;;;;;5064559;28;20024;-68
2022/04/09 07:27:58;;;;;;;13.75;2.60;;;7.30;99.90;;;;;;5070487;28;20489;-69
2022/04/09 07:30:27;;;;;;;15.23;2.75;;;7.30;99.90;;;;;;5083341;28;20103;-68
2022/04/09 07:32:58;;;;;;;10.48;2.28;;;7.40;99.90;;;;;;5084277;28;20051;-69
2022/04/09 07:35:24;;;;;;;14.15;3.35;;;7.60;99.90;;;;;;5076010;28;20074;-68
2022/04/09 07:37:54;;;;;;;15.02;3.00;;;7.70;99.90;;;;;;5089819;27;20078;-69
2022/04/09 07:40:21;;;;;;;21.73;3.30;;;7.80;99.90;;;;;;5064690;28;20335;-68
2022/04/09 07:42:48;;;;;;;9.38;1.27;;;8.00;99.90;;;;;;5092879;27;20047;-68
2022/04/09 07:45:14;;;;;;;11.85;3.30;;;7.80;99.90;;;;;;5069805;28;20054;-68
2022/04/09 07:47:41;;;;;;;16.67;4.13;;;7.40;99.90;;;;;;5086840;27;20040;-68
2022/04/09 07:50:10;;;;;;;18.60;3.65;;;7.10;99.90;;;;;;5085915;28;20387;-68
2022/04/09 07:52:44;;;;;;;17.58;3.53;;;6.90;99.90;;;;;;5086181;28;20044;-68
2022/04/09 07:55:17;;;;;;;15.18;3.50;;;6.80;99.90;;;;;;5087482;28;20127;-68
2022/04/09 07:57:50;;;;;;;17.73;3.70;;;6.80;99.90;;;;;;5085451;28;20036;-68
2022/04/09 08:00:17;;;;;;;19.73;3.65;;;6.90;99.90;;;;;;5050757;28;20052;-67
2022/04/09 08:02:44;;;;;;;17.13;2.83;;;7.30;99.90;;;;;;5076231;28;20125;-68
2022/04/09 08:05:10;;;;;;;14.18;3.53;;;7.60;99.90;;;;;;5050460;28;20048;-67
2022/04/09 08:07:40;;;;;;;13.52;3.15;;;7.90;99.90;;;;;;5069760;28;20059;-67
2022/04/09 08:10:07;;;;;;;17.70;4.13;;;7.80;99.90;;;;;;5068537;28;20040;-67
2022/04/09 08:12:34;;;;;;;22.00;4.75;;;7.70;99.90;;;;;;5069202;28;20047;-68
2022/04/09 08:15:00;;;;;;;14.82;3.28;;;7.80;99.90;;;;;;5052272;28;20048;-67
2022/04/09 08:17:26;;;;;;;18.55;3.72;;;8.10;99.90;;;;;;5077963;28;20040;-67
2022/04/09 08:19:51;;;;;;;12.38;2.75;;;8.40;99.90;;;;;;5084339;28;20390;-67
2022/04/09 08:22:18;;;;;;;15.25;3.47;;;8.30;99.90;;;;;;5064902;28;20039;-67
2022/04/09 08:24:45;;;;;;;14.73;3.58;;;8.20;99.90;;;;;;5057325;28;20036;-67
2022/04/09 08:27:11;;;;;;;14.98;3.20;;;8.40;99.90;;;;;;5076340;28;20048;-67
2022/04/09 08:29:37;;;;;;;21.50;4.47;;;8.70;99.90;;;;;;5072815;28;20516;-67
2022/04/09 08:32:04;;;;;;;12.68;2.60;;;9.00;99.90;;;;;;5085435;28;20046;-68
2022/04/09 08:34:33;;;;;;;17.65;3.65;;;9.20;99.90;;;;;;5085753;28;20062;-67
2022/04/09 08:36:59;;;;;;;14.52;3.50;;;9.10;99.90;;;;;;5071400;28;20048;-67
2022/04/09 08:39:25;;;;;;;16.50;3.30;;;8.60;99.90;;;;;;5068872;28;20059;-67
2022/04/09 08:41:53;;;;;;;11.90;2.60;;;8.30;99.90;;;;;;5089451;28;20043;-67
2022/04/09 08:44:19;;;;;;;10.98;2.35;;;7.80;99.90;;;;;;5075022;28;20036;-67
2022/04/09 08:46:46;;;;;;;15.52;2.85;;;7.50;99.90;;;;;;5090788;28;20105;-67
2022/04/09 08:49:13;;;;;;;11.63;2.00;;;7.20;99.90;;;;;;5090541;28;20039;-67
2022/04/09 08:51:39;;;;;;;9.00;2.00;;;7.00;99.90;;;;;;5089649;28;20052;-67
2022/04/09 08:54:08;;;;;;;9.88;2.30;;;7.00;99.90;;;;;;5086270;28;20533;-67
2022/04/09 08:56:34;;;;;;;6.82;2.38;;;6.90;99.90;;;;;;5084790;28;20375;-68
2022/04/09 08:59:03;;;;;;;12.02;2.80;;;7.30;99.90;;;;;;5051217;28;20567;-68
2022/04/09 09:01:31;;;;;;;16.33;3.50;;;7.70;99.90;;;;;;5080684;28;20048;-67
2022/04/09 09:03:57;;;;;;;16.20;3.38;;;8.20;99.90;;;;;;5071150;28;20051;-66
2022/04/09 09:06:29;;;;;;;11.70;3.20;;;8.30;99.90;;;;;;5107547;28;20063;-67
2022/04/09 09:08:57;;;;;;;11.55;2.80;;;7.90;99.90;;;;;;5087984;28;20044;-67
2022/04/09 09:11:24;;;;;;;11.20;2.42;;;7.10;99.90;;;;;;5108185;28;20032;-67
2022/04/09 09:13:52;;;;;;;12.00;3.25;;;6.40;99.90;;;;;;5086224;28;20059;-67
2022/04/09 09:16:25;;;;;;;16.30;2.67;;;6.00;99.90;;;;;;5086974;28;20389;-67
2022/04/09 09:18:52;;;;;;;7.80;1.92;;;5.90;99.90;;;;;;5085229;28;20040;-67
2022/04/09 09:21:23;;;;;;;7.82;2.28;;;5.90;99.90;;;;;;5084781;28;20062;-66
2022/04/09 09:23:52;;;;;;;8.60;2.00;;;6.00;99.90;;;;;;5086622;28;20047;-67
2022/04/09 09:26:25;;;;;;;10.30;1.70;;;6.10;99.90;;;;;;5082066;28;20040;-67
2022/04/09 09:28:56;;;;;;;5.43;1.23;;;6.30;99.90;;;;;;5087245;28;20051;-67
2022/04/09 09:31:41;;;;;;;8.27;1.70;;;6.40;99.90;;;;;;5082017;28;20047;-67
2022/04/09 09:34:11;;;;;;;10.38;1.58;;;6.50;99.90;;;;;;5086187;28;20051;-67
2022/04/09 09:36:40;;;;;;;7.57;1.48;;;6.50;99.90;;;;;;5104428;28;20032;-67
2022/04/09 09:39:08;;;;;;;8.07;2.38;;;6.70;99.90;;;;;;5086860;28;20051;-67
2022/04/09 09:41:35;;;;;;;9.85;1.67;;;7.00;99.90;;;;;;5086646;28;20029;-67
2022/04/09 09:44:05;;;;;;;10.43;2.35;;;7.30;99.90;;;;;;5063494;28;20040;-67
2022/04/09 09:46:31;;;;;;;7.55;1.95;;;7.50;99.90;;;;;;5100908;28;20365;-67
2022/04/09 09:48:57;;;;;;;12.40;2.03;;;7.80;99.90;;;;;;5077505;28;20040;-68
2022/04/09 09:51:24;;;;;;;13.00;2.38;;;7.90;99.90;;;;;;5069291;28;20101;-67
2022/04/09 09:54:02;;;;;;;10.75;2.05;;;8.10;99.90;;;;;;5073760;28;20059;-67
2022/04/09 09:56:37;;;;;;;15.52;2.47;;;8.30;99.90;;;;;;5087574;28;20764;-67
2022/04/09 09:59:07;;;;;;;22.77;3.53;;;8.60;99.90;;;;;;5084638;28;20075;-67
2022/04/09 10:01:41;;;;;;;16.63;3.45;;;8.90;99.90;;;;;;5068100;28;20172;-67
2022/04/09 10:04:08;;;;;;;28.50;3.55;;;9.20;99.90;;;;;;5088301;28;20044;-68
2022/04/09 10:06:36;;;;;;;22.88;4.00;;;9.00;99.90;;;;;;5097254;28;20494;-68
2022/04/09 10:09:07;;;;;;;16.48;3.10;;;8.80;99.90;;;;;;5105009;28;20051;-69
2022/04/09 10:11:54;;;;;;;15.35;3.10;;;9.00;99.90;;;;;;5104676;27;20388;-69
2022/04/09 10:14:23;;;;;;;17.60;3.75;;;8.90;99.90;;;;;;5082995;28;20044;-68
2022/04/09 10:16:52;;;;;;;20.77;3.50;;;8.80;99.90;;;;;;5083430;27;20104;-68
2022/04/09 10:19:22;;;;;;;16.23;3.47;;;8.60;99.90;;;;;;5082659;28;20039;-68
2022/04/09 10:21:48;;;;;;;15.23;3.58;;;8.50;99.90;;;;;;5085582;28;20409;-67
2022/04/09 10:24:18;;;;;;;18.85;3.05;;;8.40;99.70;;;;;;5074597;28;20052;-68
2022/04/09 10:26:44;;;;;;;18.25;3.05;;;8.30;99.60;;;;;;5053700;28;20040;-68
2022/04/09 10:29:10;;;;;;;18.85;4.07;;;8.30;99.90;;;;;;5082730;28;20044;-68
2022/04/09 10:31:41;;;;;;;18.15;3.05;;;8.40;99.90;;;;;;5080566;28;20051;-67
2022/04/09 10:34:07;;;;;;;;;;;8.60;99.90;;;;;;5060803;28;20101;-67
2022/04/09 10:36:45;;;;;;;5.93;1.50;;;8.60;99.90;;;;;;5084689;28;19923;-67
2022/04/09 10:39:23;;;;;;;9.70;2.22;;;8.10;99.90;;;;;;5084693;28;20096;-68
2022/04/09 10:41:55;;;;;;;12.57;1.67;;;7.70;99.90;;;;;;5084501;27;20035;-68
2022/04/09 10:44:44;;;;;;;4.88;1.23;;;7.60;99.90;;;;;;5085323;27;20084;-66
2022/04/09 10:47:13;;;;;;;4.60;1.42;;;7.30;99.90;;;;;;5068909;28;20577;-68
2022/04/09 10:49:39;;;;;;;5.25;1.67;;;7.00;99.90;;;;;;5083794;28;20448;-68
2022/04/09 10:52:06;;;;;;;5.57;1.02;;;6.80;99.90;;;;;;5068375;28;20128;-68
2022/04/09 10:54:33;;;;;;;4.55;1.45;;;7.10;99.90;;;;;;5085014;28;20219;-67
2022/04/09 10:57:24;;;;;;;5.47;1.20;;;7.30;99.90;;;;;;5085741;28;20085;-67
2022/04/09 10:59:57;;;;;;;3.92;0.65;;;7.70;99.90;;;;;;5085684;28;20096;-68
2022/04/09 11:02:29;;;;;;;4.47;1.20;;;7.90;99.90;;;;;;5082674;28;20051;-67
2022/04/09 11:04:55;;;;;;;5.10;1.10;;;8.00;99.90;;;;;;5069605;28;20047;-67
2022/04/09 11:07:22;;;;;;;4.82;1.42;;;8.20;99.90;;;;;;5093050;28;20043;-68
2022/04/09 11:10:01;;;;;;;11.63;1.88;;;8.30;99.90;;;;;;5088516;28;20387;-68
2022/04/09 11:12:28;;;;;;;7.78;1.58;;;8.40;99.90;;;;;;5088245;28;20115;-67
2022/04/09 11:14:58;;;;;;;12.55;2.67;;;8.60;99.90;;;;;;5074829;28;20441;-67
2022/04/09 11:17:29;;;;;;;11.45;2.13;;;8.60;99.90;;;;;;5091560;28;20051;-67
2022/04/09 11:19:56;;;;;;;11.82;2.85;;;8.80;99.90;;;;;;5108135;28;20044;-67
2022/04/09 11:22:30;;;;;;;11.32;3.08;;;8.90;99.90;;;;;;5075450;28;20059;-68
2022/04/09 11:24:55;;;;;;;11.35;2.22;;;8.90;99.90;;;;;;5088665;28;20097;-66
2022/04/09 11:27:21;;;;;;;12.88;2.85;;;9.00;99.90;;;;;;5085909;28;20075;-66
2022/04/09 11:29:48;;;;;;;18.60;3.35;;;8.70;99.90;;;;;;5073468;28;20042;-67
2022/04/09 11:32:19;;;;;;;10.88;2.70;;;8.60;99.90;;;;;;5097522;28;20039;-67
2022/04/09 11:34:48;;;;;;;11.07;2.95;;;8.70;99.90;;;;;;5072196;28;20048;-67
2022/04/09 11:37:14;;;;;;;10.05;2.53;;;8.80;99.90;;;;;;5074922;28;20516;-67
2022/04/09 11:39:41;;;;;;;12.85;2.70;;;8.70;99.90;;;;;;5056481;28;20090;-67
2022/04/09 11:42:08;;;;;;;15.43;3.00;;;9.00;99.90;;;;;;5088516;28;20138;-67
2022/04/09 11:44:35;;;;;;;17.65;3.25;;;9.20;99.90;;;;;;5070790;28;20504;-67
2022/04/09 11:47:17;;;;;;;15.32;3.40;;;9.50;99.90;;;;;;5072261;28;20168;-67
2022/04/09 11:49:44;;;;;;;18.70;3.22;;;9.70;99.90;;;;;;5070423;28;20492;-67
2022/04/09 11:52:11;;;;;;;16.05;3.20;;;9.60;99.90;;;;;;5087794;28;20047;-67
2022/04/09 11:54:43;;;;;;;15.35;3.17;;;9.70;99.90;;;;;;5073557;28;20063;-68
2022/04/09 11:57:14;;;;;;;11.45;2.70;;;9.30;99.90;;;;;;5092000;28;20047;-67
2022/04/09 11:59:40;;;;;;;15.80;3.25;;;9.20;99.90;;;;;;5090525;28;20496;-67
2022/04/09 12:02:19;;;;;;;15.45;3.03;;;9.10;99.90;;;;;;5085206;28;20048;-68
2022/04/09 12:04:45;;;;;;;18.02;2.88;;;9.20;99.90;;;;;;5072227;28;20044;-68
2022/04/09 12:07:11;;;;;;;16.27;3.28;;;9.30;99.90;;;;;;5096034;28;20410;-67
2022/04/09 12:09:37;;;;;;;15.65;3.20;;;8.90;99.90;;;;;;5054579;28;20100;-67
2022/04/09 12:12:04;;;;;;;16.58;2.53;;;8.50;99.90;;;;;;5089625;28;20117;-68
2022/04/09 12:14:29;;;;;;;12.93;2.63;;;8.80;99.90;;;;;;5088757;28;20039;-67
2022/04/09 12:16:56;;;;;;;14.57;2.70;;;8.60;99.90;;;;;;5068038;28;20096;-67
2022/04/09 12:19:29;;;;;;;12.30;2.15;;;8.70;99.90;;;;;;5107879;28;20378;-68
2022/04/09 12:21:55;;;;;;;15.43;1.95;;;8.80;99.90;;;;;;5110179;28;20055;-68
2022/04/09 12:24:21;;;;;;;7.25;1.73;;;8.60;99.90;;;;;;5072458;28;20035;-67
2022/04/09 12:26:57;;;;;;;12.85;2.22;;;8.70;99.90;;;;;;5091526;28;20059;-68
2022/04/09 12:29:24;;;;;;;11.48;1.83;;;9.10;99.90;;;;;;5063377;28;20382;-69
2022/04/09 12:31:51;;;;;;;20.38;3.45;;;8.90;99.90;;;;;;5086018;28;20058;-68
2022/04/09 12:34:21;;;;;;;20.90;3.17;;;8.60;99.90;;;;;;5071046;28;20028;-68
2022/04/09 12:37:05;;;;;;;21.60;3.60;;;8.20;99.90;;;;;;5070104;28;20214;-68
2022/04/09 12:39:33;;;;;;;26.25;3.78;;;7.90;99.90;;;;;;5088323;28;20054;-68
2022/04/09 12:41:59;;;;;;;21.38;4.10;;;7.60;99.90;;;;;;5069189;28;20040;-68
2022/04/09 12:44:32;;;;;;;18.73;2.63;;;7.30;99.90;;;;;;5070908;28;20043;-69
2022/04/09 12:46:58;;;;;;;22.77;3.65;;;6.60;99.90;;;;;;5070579;28;20052;-67
2022/04/09 12:49:36;;;;;;;13.63;1.98;;;6.20;99.90;;;;;;5087491;28;20055;-67
2022/04/09 12:52:05;;;;;;;8.70;1.92;;;6.50;99.90;;;;;;5089049;28;20044;-67